Time;durP1;ratioP1;P1;durP2;ratioP2;P2;SDS_P1;SDS_P2;PMS_P1;PMS_P2;Temp;Humidity;BMP_temperature;BMP_pressure;BME280_temperature;BME280_humidity;BME280_pressure;Samples;Min_cycle;Max_cycle;Signal;HPM_P1;HPM_P2
2022/04/23 00:01:49;;;;;;;7.80;6.20;;;10.40;99.90;;;;;;5000935;28;20198;-74
2022/04/23 00:04:15;;;;;;;6.53;5.77;;;10.40;99.90;;;;;;5017036;28;20215;-74
2022/04/23 00:06:40;;;;;;;7.10;6.40;;;10.30;99.90;;;;;;4984902;28;20181;-74
2022/04/23 00:09:06;;;;;;;9.90;6.60;;;10.20;99.90;;;;;;4984642;28;20208;-74
2022/04/23 00:11:35;;;;;;;7.47;6.53;;;10.20;99.90;;;;;;5034531;28;20285;-74
2022/04/23 00:14:01;;;;;;;6.37;5.77;;;10.20;99.90;;;;;;5016775;28;20183;-74
2022/04/23 00:16:27;;;;;;;7.23;6.03;;;10.10;99.90;;;;;;4984391;28;20217;-74
2022/04/23 00:18:53;;;;;;;6.13;5.53;;;10.00;99.90;;;;;;5017078;28;20656;-74
2022/04/23 00:21:19;;;;;;;6.43;5.83;;;10.00;99.90;;;;;;5016598;28;20205;-74
2022/04/23 00:23:47;;;;;;;6.63;5.87;;;10.00;99.90;;;;;;4984335;28;20184;-74
2022/04/23 00:26:13;;;;;;;7.53;6.60;;;10.00;99.90;;;;;;5016783;28;20239;-75
2022/04/23 00:28:39;;;;;;;7.20;6.47;;;10.00;99.90;;;;;;5016667;28;20190;-74
2022/04/23 00:31:05;;;;;;;6.40;5.80;;;10.10;99.90;;;;;;5016851;28;20204;-74
2022/04/23 00:33:32;;;;;;;7.90;6.63;;;10.00;99.90;;;;;;5000486;28;20182;-74
2022/04/23 00:35:58;;;;;;;6.70;6.00;;;10.00;99.90;;;;;;5016505;28;20204;-74
2022/04/23 00:38:24;;;;;;;6.97;6.13;;;10.00;99.90;;;;;;5016650;28;20686;-74
2022/04/23 00:40:50;;;;;;;8.13;6.30;;;9.90;99.90;;;;;;4984172;28;20181;-74
2022/04/23 00:43:26;;;;;;;7.57;6.30;;;9.90;99.90;;;;;;5016524;28;20238;-74
2022/04/23 00:45:52;;;;;;;6.83;5.80;;;9.80;99.90;;;;;;5016381;28;20712;-74
2022/04/23 00:48:17;;;;;;;7.20;6.50;;;9.80;99.90;;;;;;5000203;28;20194;-74
2022/04/23 00:50:43;;;;;;;7.20;6.33;;;9.70;99.90;;;;;;5016209;28;20243;-74
2022/04/23 00:53:09;;;;;;;8.47;6.20;;;9.70;99.90;;;;;;5033748;28;20260;-74
2022/04/23 00:55:36;;;;;;;7.10;6.20;;;9.70;99.90;;;;;;5016212;28;20205;-74
2022/04/23 00:58:03;;;;;;;6.50;5.77;;;9.60;99.90;;;;;;5016065;28;20635;-74
2022/04/23 01:00:29;;;;;;;6.87;6.10;;;9.50;99.90;;;;;;5034080;28;20178;-75
2022/04/23 01:02:55;;;;;;;8.00;6.80;;;9.50;99.90;;;;;;5023989;22;20725;-74
2022/04/23 01:05:23;;;;;;;8.17;6.80;;;9.50;99.90;;;;;;4967367;28;20205;-74
2022/04/23 01:07:51;;;;;;;7.33;6.60;;;9.50;99.90;;;;;;5015390;28;20185;-74
2022/04/23 01:10:17;;;;;;;7.00;6.20;;;9.50;99.90;;;;;;4998219;28;20547;-74
2022/04/23 01:12:45;;;;;;;7.43;6.30;;;9.50;99.90;;;;;;5015554;28;20210;-74
2022/04/23 01:15:13;;;;;;;8.50;6.53;;;9.60;99.90;;;;;;4983452;28;20232;-74
2022/04/23 01:17:40;;;;;;;7.70;6.90;;;9.50;99.90;;;;;;5015485;28;20231;-74
2022/04/23 01:20:14;;;;;;;9.20;6.80;;;9.50;99.90;;;;;;4999042;28;20561;-74
2022/04/23 01:22:41;;;;;;;9.17;7.40;;;9.40;99.90;;;;;;5014995;28;20641;-74
2022/04/23 01:25:12;;;;;;;7.93;7.10;;;9.40;99.90;;;;;;5015620;28;20184;-74
2022/04/23 01:27:39;;;;;;;7.60;6.70;;;9.40;99.90;;;;;;4999677;28;20192;-74
2022/04/23 01:30:06;;;;;;;8.63;7.17;;;9.40;99.90;;;;;;5015252;28;20208;-74
2022/04/23 01:32:32;;;;;;;7.97;6.80;;;9.20;99.90;;;;;;5015264;28;20241;-74
2022/04/23 01:34:58;;;;;;;7.60;6.80;;;9.20;99.90;;;;;;5015025;28;20200;-74
2022/04/23 01:37:23;;;;;;;9.60;7.77;;;9.10;99.90;;;;;;4998861;28;20674;-74
2022/04/23 01:39:49;;;;;;;8.60;7.70;;;9.10;99.90;;;;;;4982521;28;20569;-74
2022/04/23 01:42:19;;;;;;;8.33;7.10;;;9.00;99.90;;;;;;5014568;28;20199;-74
2022/04/23 01:44:46;;;;;;;8.53;6.70;;;8.90;99.90;;;;;;5015034;28;20181;-74
2022/04/23 01:47:11;;;;;;;9.23;7.67;;;8.80;99.90;;;;;;5014986;28;20191;-74
2022/04/23 01:49:38;;;;;;;9.97;7.97;;;8.70;99.90;;;;;;4998413;28;20188;-74
2022/04/23 01:52:04;;;;;;;8.77;7.87;;;8.80;99.90;;;;;;4998099;28;20201;-74
2022/04/23 01:54:29;;;;;;;8.30;7.50;;;8.80;99.90;;;;;;5014699;28;20317;-74
2022/04/23 01:56:59;;;;;;;8.57;7.50;;;8.90;99.90;;;;;;4998288;28;20208;-74
2022/04/23 01:59:25;;;;;;;8.53;7.43;;;8.80;99.90;;;;;;5032360;28;20539;-74
2022/04/23 02:01:51;;;;;;;9.60;8.00;;;8.90;99.90;;;;;;5014338;28;20213;-74
2022/04/23 02:04:17;;;;;;;9.37;8.00;;;8.80;99.90;;;;;;5032184;28;20173;-74
2022/04/23 02:06:43;;;;;;;9.13;7.53;;;8.80;99.90;;;;;;4998238;28;20178;-74
2022/04/23 02:09:09;;;;;;;9.17;7.67;;;8.70;99.90;;;;;;4982323;28;20188;-74
2022/04/23 02:11:34;;;;;;;10.87;8.30;;;8.80;99.90;;;;;;4982070;28;20207;-74
2022/04/23 02:14:02;;;;;;;10.00;8.90;;;8.80;99.90;;;;;;5014434;28;20236;-74
2022/04/23 02:16:28;;;;;;;12.73;8.83;;;8.80;99.90;;;;;;5014322;28;20212;-74
2022/04/23 02:18:54;;;;;;;11.27;9.10;;;8.80;99.90;;;;;;5014385;28;20215;-74
2022/04/23 02:21:20;;;;;;;14.00;10.00;;;8.80;99.90;;;;;;4998591;28;20228;-74
2022/04/23 02:23:45;;;;;;;11.87;9.63;;;8.90;99.90;;;;;;4986089;28;20180;-74
2022/04/23 02:26:11;;;;;;;10.47;8.57;;;8.80;99.90;;;;;;4985960;28;20186;-74
2022/04/23 02:28:39;;;;;;;10.10;8.20;;;8.70;99.90;;;;;;5018641;28;20190;-74
2022/04/23 02:31:08;;;;;;;11.80;9.83;;;8.50;99.90;;;;;;4986485;28;20219;-74
2022/04/23 02:33:34;;;;;;;12.23;9.47;;;8.50;99.90;;;;;;4985866;28;20185;-74
2022/04/23 02:36:00;;;;;;;11.40;9.83;;;8.20;99.90;;;;;;5018503;28;20214;-74
2022/04/23 02:38:25;;;;;;;12.87;10.80;;;8.10;99.90;;;;;;5018372;28;20175;-74
2022/04/23 02:40:51;;;;;;;13.63;10.10;;;8.10;99.90;;;;;;5001885;28;20281;-74
2022/04/23 02:43:17;;;;;;;12.97;10.30;;;8.20;99.90;;;;;;4985440;28;20232;-74
2022/04/23 02:45:42;;;;;;;14.83;11.70;;;8.30;99.90;;;;;;5001791;28;20548;-74
2022/04/23 02:48:11;;;;;;;14.00;10.90;;;8.30;99.90;;;;;;4985503;28;20641;-74
2022/04/23 02:50:38;;;;;;;16.03;12.00;;;8.40;99.90;;;;;;5035736;28;20545;-74
2022/04/23 02:53:08;;;;;;;14.40;11.23;;;8.30;99.90;;;;;;4985435;28;20202;-74
2022/04/23 02:55:35;;;;;;;12.10;9.93;;;8.40;99.90;;;;;;5035689;28;20194;-74
2022/04/23 02:58:03;;;;;;;12.70;10.40;;;8.40;99.90;;;;;;5001793;28;20190;-74
2022/04/23 03:00:29;;;;;;;13.53;10.23;;;8.30;99.90;;;;;;5001779;28;20169;-74
2022/04/23 03:02:54;;;;;;;14.83;11.10;;;8.40;99.90;;;;;;5035118;28;20218;-74
2022/04/23 03:05:21;;;;;;;15.13;11.53;;;8.40;99.90;;;;;;5018060;28;20188;-74
2022/04/23 03:07:48;;;;;;;13.43;10.90;;;8.30;99.90;;;;;;5017918;28;20260;-74
2022/04/23 03:10:15;;;;;;;15.63;12.40;;;8.30;99.90;;;;;;5001780;28;20182;-74
2022/04/23 03:12:42;;;;;;;17.20;12.43;;;8.30;99.90;;;;;;5001251;28;20580;-74
2022/04/23 03:15:10;;;;;;;15.67;12.20;;;8.40;99.90;;;;;;5017449;28;20535;-74
2022/04/23 03:17:36;;;;;;;15.47;12.47;;;8.40;99.90;;;;;;5001318;28;20179;-74
2022/04/23 03:20:04;;;;;;;17.47;14.20;;;8.50;99.90;;;;;;5017716;28;20552;-74
2022/04/23 03:22:29;;;;;;;16.83;13.10;;;8.60;99.90;;;;;;5017266;28;20201;-74
2022/04/23 03:24:55;;;;;;;15.70;12.93;;;8.60;99.90;;;;;;5035145;28;20181;-74
2022/04/23 03:27:21;;;;;;;18.13;14.10;;;8.60;99.90;;;;;;5017407;28;20182;-74
2022/04/23 03:29:46;;;;;;;18.73;13.50;;;8.60;99.90;;;;;;5001125;28;20181;-74
2022/04/23 03:32:12;;;;;;;18.20;13.23;;;8.70;99.90;;;;;;5017282;28;20209;-74
2022/04/23 03:34:38;;;;;;;16.80;13.30;;;8.70;99.90;;;;;;4983943;28;20182;-74
2022/04/23 03:37:05;;;;;;;17.53;12.90;;;8.70;99.90;;;;;;5017469;28;20212;-74
2022/04/23 03:39:35;;;;;;;17.83;13.43;;;8.70;99.90;;;;;;5000973;28;20186;-74
2022/04/23 03:42:01;;;;;;;19.00;13.20;;;8.70;99.90;;;;;;5016826;28;20718;-74
2022/04/23 03:44:28;;;;;;;17.93;13.13;;;8.60;99.90;;;;;;5017219;28;20179;-74
2022/04/23 03:46:54;;;;;;;17.73;13.57;;;8.60;99.90;;;;;;5000756;28;20303;-74
2022/04/23 03:49:22;;;;;;;16.93;12.63;;;8.60;99.90;;;;;;5017478;28;20205;-74
2022/04/23 03:51:47;;;;;;;16.13;12.60;;;8.60;99.90;;;;;;4984804;28;20203;-74
2022/04/23 03:54:14;;;;;;;19.87;13.43;;;8.50;99.90;;;;;;5017018;28;20557;-74
2022/04/23 03:56:40;;;;;;;15.90;12.73;;;8.50;99.90;;;;;;4984553;28;20198;-74
2022/04/23 03:59:07;;;;;;;17.40;13.87;;;8.40;99.90;;;;;;5017059;28;20179;-74
2022/04/23 04:01:33;;;;;;;16.43;12.63;;;8.30;99.90;;;;;;5016756;28;20233;-74
2022/04/23 04:04:00;;;;;;;15.43;13.07;;;8.20;99.90;;;;;;5016564;28;20633;-74
2022/04/23 04:06:25;;;;;;;16.90;13.10;;;8.20;99.90;;;;;;5016731;28;20185;-74
2022/04/23 04:08:52;;;;;;;19.23;14.67;;;8.20;99.90;;;;;;4984211;28;20293;-74
2022/04/23 04:11:17;;;;;;;19.83;14.43;;;8.10;99.90;;;;;;5016742;28;20275;-74
2022/04/23 04:13:43;;;;;;;19.00;14.17;;;8.10;99.90;;;;;;4983896;28;20278;-74
2022/04/23 04:16:09;;;;;;;20.03;14.67;;;8.10;99.90;;;;;;5000345;28;20202;-74
2022/04/23 04:18:35;;;;;;;19.93;14.50;;;8.20;99.90;;;;;;5000126;28;20182;-74
2022/04/23 04:21:01;;;;;;;20.13;15.00;;;8.10;99.90;;;;;;5033994;28;20259;-74
2022/04/23 04:23:27;;;;;;;19.67;15.40;;;8.10;99.90;;;;;;5000171;28;20179;-74
2022/04/23 04:25:53;;;;;;;18.90;14.83;;;8.20;99.90;;;;;;4983882;28;20205;-74
2022/04/23 04:28:20;;;;;;;20.67;14.67;;;8.00;99.90;;;;;;5016470;28;20210;-74
2022/04/23 04:33:31;;;;;;;19.17;15.10;;;8.10;99.90;;;;;;5019172;28;20241;-74
2022/04/23 04:35:56;;;;;;;21.13;15.73;;;8.10;99.90;;;;;;5016106;28;20203;-74
2022/04/23 04:38:22;;;;;;;18.90;14.47;;;8.10;99.90;;;;;;4999780;28;20210;-74
2022/04/23 04:40:48;;;;;;;18.47;14.47;;;8.00;99.90;;;;;;5016055;28;20216;-74
2022/04/23 04:43:14;;;;;;;17.77;14.00;;;8.00;99.90;;;;;;5015710;28;20199;-74
2022/04/23 04:45:39;;;;;;;18.77;14.93;;;8.00;99.90;;;;;;4983212;28;20175;-74
2022/04/23 04:48:05;;;;;;;18.83;14.47;;;7.90;99.90;;;;;;4983383;28;20261;-74
2022/04/23 04:50:31;;;;;;;21.30;14.53;;;8.00;99.90;;;;;;5015821;28;20208;-74
2022/04/23 04:52:58;;;;;;;19.33;14.43;;;8.00;99.90;;;;;;5015551;28;20194;-74
2022/04/23 04:55:23;;;;;;;19.03;14.17;;;8.00;99.90;;;;;;5015650;28;20212;-74
2022/04/23 04:57:49;;;;;;;18.20;14.70;;;7.80;99.90;;;;;;5015907;28;20257;-74
2022/04/23 05:00:16;;;;;;;20.80;15.80;;;7.80;99.90;;;;;;5015641;28;20198;-74
2022/04/23 05:02:41;;;;;;;19.77;14.70;;;7.90;99.90;;;;;;4999036;28;20237;-74
2022/04/23 05:05:07;;;;;;;20.60;14.67;;;8.00;99.90;;;;;;4983134;28;20209;-74
2022/04/23 05:07:33;;;;;;;18.80;14.60;;;7.90;99.90;;;;;;4999209;28;20174;-74
2022/04/23 05:16:44;;;;;;;19.87;14.73;;;8.10;99.90;;;;;;5033406;28;20726;-74
2022/04/23 05:19:09;;;;;;;21.53;15.60;;;8.30;99.90;;;;;;5015847;28;20162;-74
2022/04/23 05:21:35;;;;;;;24.20;16.17;;;8.40;99.90;;;;;;5015812;28;20251;-74
2022/04/23 05:24:01;;;;;;;22.43;16.20;;;8.50;99.90;;;;;;4983382;28;20286;-74
2022/04/23 05:26:26;;;;;;;21.00;16.13;;;8.80;99.90;;;;;;4999382;28;20178;-74
2022/04/23 05:28:52;;;;;;;22.97;16.73;;;9.10;99.90;;;;;;5015519;28;20274;-74
2022/04/23 05:31:18;;;;;;;22.87;16.43;;;9.30;99.90;;;;;;5015835;28;20677;-74
2022/04/23 05:33:43;;;;;;;24.50;16.87;;;9.40;99.90;;;;;;4999035;28;20181;-78
2022/04/23 05:36:09;;;;;;;21.77;16.20;;;9.60;99.90;;;;;;5015741;28;20255;-74
2022/04/23 05:38:35;;;;;;;24.13;16.97;;;9.70;99.90;;;;;;5015502;28;20187;-74
2022/04/23 05:41:01;;;;;;;23.63;15.97;;;9.80;99.90;;;;;;5015459;28;20224;-74
2022/04/23 05:43:26;;;;;;;24.43;16.47;;;9.90;99.90;;;;;;4998940;28;20673;-74
2022/04/23 05:45:52;;;;;;;25.60;17.83;;;9.90;99.90;;;;;;5032996;28;20228;-74
2022/04/23 05:48:18;;;;;;;23.80;17.07;;;9.90;99.90;;;;;;4999158;28;20216;-74
2022/04/23 05:50:43;;;;;;;21.97;15.10;;;10.00;99.90;;;;;;4983057;28;20270;-73
2022/04/23 05:53:11;;;;;;;23.53;16.70;;;10.10;99.90;;;;;;4998575;28;20207;-73
2022/04/23 05:55:36;;;;;;;22.77;16.27;;;10.30;99.90;;;;;;5015323;28;20691;-74
2022/04/23 05:58:02;;;;;;;22.73;16.27;;;10.50;99.90;;;;;;5014605;28;20191;-74
2022/04/23 06:00:27;;;;;;;22.13;16.00;;;10.50;99.90;;;;;;4982741;28;20275;-77
2022/04/23 06:02:53;;;;;;;20.77;15.37;;;10.50;99.90;;;;;;4998536;28;20212;-75
2022/04/23 06:05:19;;;;;;;22.47;16.13;;;10.50;99.90;;;;;;5015089;28;20186;-75
2022/04/23 06:07:44;;;;;;;22.07;15.70;;;10.50;99.90;;;;;;4982613;28;20235;-76
2022/04/23 06:10:10;;;;;;;23.07;15.20;;;10.60;99.90;;;;;;4982726;28;20179;-74
2022/04/23 06:12:36;;;;;;;20.77;15.43;;;10.60;99.90;;;;;;4998689;28;20194;-75
2022/04/23 06:15:03;;;;;;;22.23;15.87;;;10.60;99.90;;;;;;5014958;28;20311;-74
2022/04/23 06:17:29;;;;;;;23.00;16.07;;;10.70;99.90;;;;;;4998509;28;20184;-74
2022/04/23 06:19:55;;;;;;;24.77;17.17;;;10.70;99.90;;;;;;4982526;28;20186;-74
2022/04/23 06:22:22;;;;;;;26.60;18.27;;;10.80;99.90;;;;;;5014612;28;20201;-74
2022/04/23 06:24:48;;;;;;;26.53;17.30;;;10.80;99.90;;;;;;4998447;28;20271;-74
2022/04/23 06:27:13;;;;;;;23.10;15.87;;;10.90;99.90;;;;;;5014684;28;20274;-74
2022/04/23 06:29:40;;;;;;;25.47;16.27;;;11.00;99.90;;;;;;5015055;28;20173;-74
2022/04/23 06:32:06;;;;;;;22.83;15.63;;;11.00;99.90;;;;;;5014835;28;20794;-74
2022/04/23 06:34:34;;;;;;;21.87;15.20;;;11.10;99.90;;;;;;5014829;28;20174;-75
2022/04/23 06:36:59;;;;;;;20.47;14.73;;;11.00;99.90;;;;;;5014681;28;20202;-74
2022/04/23 06:39:25;;;;;;;22.80;15.20;;;11.00;99.90;;;;;;4998703;28;20193;-74
2022/04/23 06:41:50;;;;;;;22.23;14.07;;;11.10;99.90;;;;;;4982062;28;20220;-74
2022/04/23 06:44:16;;;;;;;21.27;15.20;;;11.10;99.90;;;;;;4982112;28;20716;-74
2022/04/23 06:46:41;;;;;;;23.67;15.43;;;11.00;99.90;;;;;;5014668;28;20187;-74
2022/04/23 06:49:07;;;;;;;23.00;14.93;;;11.10;99.90;;;;;;4998430;28;20637;-74
2022/04/23 06:51:33;;;;;;;24.00;15.97;;;11.10;99.90;;;;;;4982603;28;20209;-74
2022/04/23 06:53:59;;;;;;;23.43;15.33;;;11.10;99.90;;;;;;5014400;28;20181;-74
2022/04/23 06:56:26;;;;;;;24.73;15.43;;;11.10;99.90;;;;;;5014751;28;20198;-74
2022/04/23 06:58:51;;;;;;;22.30;15.23;;;11.10;99.90;;;;;;4998191;28;20185;-74
2022/04/23 07:03:45;;;;;;;21.73;14.87;;;11.20;99.90;;;;;;5036800;22;20589;-74
2022/04/23 07:06:11;;;;;;;24.03;15.07;;;11.30;99.90;;;;;;5014634;28;20186;-74
2022/04/23 07:08:40;;;;;;;24.40;15.70;;;11.40;99.90;;;;;;5000540;28;20186;-74
2022/04/23 07:11:05;;;;;;;24.73;17.17;;;11.40;99.90;;;;;;5018508;28;20179;-74
2022/04/23 07:13:31;;;;;;;25.83;17.10;;;11.40;99.90;;;;;;5001529;28;20202;-74
2022/04/23 07:15:56;;;;;;;22.37;15.87;;;11.40;99.90;;;;;;4985788;28;20743;-74
2022/04/23 07:18:22;;;;;;;23.40;16.83;;;11.40;99.90;;;;;;5002033;28;20199;-74
2022/04/23 07:20:48;;;;;;;23.00;16.07;;;11.50;99.90;;;;;;4985687;28;20569;-74
2022/04/23 07:25:57;;;;;;;23.13;16.70;;;11.60;99.90;;;;;;5007071;28;20169;-75
2022/04/23 07:28:23;;;;;;;23.10;15.77;;;11.60;99.90;;;;;;4985413;28;20182;-74
2022/04/23 07:30:48;;;;;;;22.80;15.63;;;11.60;99.90;;;;;;4985237;28;20178;-74
2022/04/23 07:37:28;;;;;;;19.57;14.20;;;11.70;99.90;;;;;;5001610;28;20298;-77
2022/04/23 07:38:43;;;;;;;20.93;14.50;;;11.90;99.90;;;;;;5006686;28;20182;-76
2022/04/23 07:41:09;;;;;;;19.37;13.60;;;11.90;99.90;;;;;;4985381;28;20174;-77
2022/04/23 07:43:35;;;;;;;18.30;13.47;;;12.00;99.90;;;;;;5001383;28;20196;-76
2022/04/23 07:46:01;;;;;;;18.10;13.13;;;12.10;99.90;;;;;;5017465;28;20187;-76
2022/04/23 07:48:26;;;;;;;19.77;13.73;;;12.20;99.90;;;;;;5017519;28;20182;-76
2022/04/23 07:50:53;;;;;;;18.47;14.27;;;12.10;99.90;;;;;;4985139;28;20182;-77
2022/04/23 07:53:18;;;;;;;20.97;13.40;;;12.10;99.90;;;;;;5017242;28;20232;-76
2022/04/23 07:55:44;;;;;;;19.67;13.90;;;12.10;99.90;;;;;;4984988;28;20245;-77
2022/04/23 07:58:10;;;;;;;18.93;14.00;;;12.00;99.90;;;;;;4984899;28;20189;-76
2022/04/23 08:00:36;;;;;;;18.20;13.57;;;12.10;99.90;;;;;;4984827;28;20181;-77
2022/04/23 08:03:05;;;;;;;18.10;13.73;;;12.10;99.90;;;;;;5034561;28;20229;-76
2022/04/23 08:05:32;;;;;;;19.73;13.13;;;12.20;99.90;;;;;;4984731;28;20279;-76
2022/04/23 08:07:58;;;;;;;16.60;12.73;;;12.30;99.90;;;;;;5000782;28;20179;-77
2022/04/23 08:10:24;;;;;;;20.27;12.80;;;12.40;99.90;;;;;;5017280;28;20300;-77
2022/04/23 08:12:49;;;;;;;17.53;13.17;;;12.60;99.90;;;;;;4984622;28;20217;-77
2022/04/23 08:15:15;;;;;;;19.23;13.97;;;12.70;99.90;;;;;;5016926;28;20189;-76
2022/04/23 08:17:41;;;;;;;20.20;14.07;;;12.80;99.90;;;;;;5016823;28;20645;-76
2022/04/23 08:20:08;;;;;;;17.10;12.90;;;13.00;99.90;;;;;;5016231;28;20228;-76
2022/04/23 08:22:34;;;;;;;17.60;12.83;;;13.10;99.90;;;;;;4984571;28;20685;-76
2022/04/23 08:25:00;;;;;;;17.50;12.23;;;13.20;99.90;;;;;;5016811;28;20182;-76
2022/04/23 08:27:26;;;;;;;17.63;12.43;;;13.10;99.90;;;;;;5000546;28;20178;-76
2022/04/23 08:32:36;;;;;;;16.27;12.07;;;13.10;99.90;;;;;;5005547;28;20217;-76
2022/04/23 08:35:04;;;;;;;15.27;11.97;;;13.10;99.90;;;;;;5000500;28;20183;-76
2022/04/23 08:37:30;;;;;;;16.33;12.10;;;13.10;99.90;;;;;;5000766;28;20263;-76
2022/04/23 08:39:55;;;;;;;16.53;11.93;;;13.10;99.90;;;;;;4984389;28;20273;-76
2022/04/23 08:42:21;;;;;;;16.63;12.17;;;13.10;99.90;;;;;;5000072;28;20565;-77
2022/04/23 08:44:46;;;;;;;17.70;13.30;;;13.30;99.90;;;;;;5016736;28;20183;-77
2022/04/23 08:47:13;;;;;;;18.10;12.77;;;13.50;99.90;;;;;;4983913;28;20192;-77
2022/04/23 08:49:40;;;;;;;18.30;13.60;;;13.70;99.90;;;;;;5016422;28;20228;-77
2022/04/23 08:52:12;;;;;;;17.23;12.53;;;13.70;99.90;;;;;;5016004;28;20252;-77
2022/04/23 08:54:38;;;;;;;18.97;13.37;;;14.00;99.90;;;;;;5016204;28;20191;-77
2022/04/23 08:57:05;;;;;;;17.93;12.80;;;14.20;99.90;;;;;;5016227;28;20255;-77
2022/04/23 08:59:30;;;;;;;18.03;14.20;;;14.50;99.90;;;;;;5016145;28;20225;-77
2022/04/23 09:01:56;;;;;;;18.87;13.73;;;14.90;99.90;;;;;;4999790;28;20217;-77
2022/04/23 09:04:22;;;;;;;18.80;14.17;;;15.00;99.90;;;;;;5016322;28;20604;-77
2022/04/23 09:06:49;;;;;;;20.47;14.80;;;15.00;99.90;;;;;;5016343;28;20271;-77
2022/04/23 09:09:22;;;;;;;19.27;14.37;;;14.80;99.90;;;;;;5015972;28;20660;-77
2022/04/23 09:11:56;;;;;;;20.80;15.10;;;14.40;99.90;;;;;;5033466;28;20570;-76
2022/04/23 09:14:33;;;;;;;16.87;13.23;;;14.40;99.90;;;;;;5016238;28;20178;-77
2022/04/23 09:25:35;;;;;;;21.57;16.87;;;13.80;99.90;;;;;;5033769;28;20165;-77
2022/04/23 09:28:22;;;;;;;20.07;15.17;;;13.50;99.90;;;;;;5015964;28;20185;-77
2022/04/23 09:30:54;;;;;;;19.40;15.27;;;13.40;99.90;;;;;;5015133;28;20225;-77
2022/04/23 09:33:29;;;;;;;21.53;15.50;;;13.40;99.90;;;;;;5015027;28;20198;-77
2022/04/23 09:36:01;;;;;;;20.10;15.27;;;13.50;99.90;;;;;;5000536;28;20208;-77
2022/04/23 09:38:28;;;;;;;19.93;15.27;;;13.60;99.90;;;;;;4999452;28;20163;-77
2022/04/23 09:40:56;;;;;;;20.47;16.17;;;13.80;99.90;;;;;;4999298;28;20178;-77
2022/04/23 09:43:29;;;;;;;20.17;15.60;;;14.10;99.90;;;;;;4999049;28;20210;-76
2022/04/23 09:46:07;;;;;;;19.80;15.37;;;14.00;99.90;;;;;;4983049;28;20182;-76
2022/04/23 09:48:33;;;;;;;20.07;14.97;;;14.00;99.90;;;;;;5015762;28;20193;-76
2022/04/23 09:50:59;;;;;;;18.97;14.87;;;14.00;99.90;;;;;;5015366;28;20182;-77
2022/04/23 09:53:28;;;;;;;18.40;14.47;;;13.90;99.90;;;;;;5015349;28;20328;-77
2022/04/23 09:56:01;;;;;;;18.37;13.97;;;14.10;99.90;;;;;;5015432;28;20220;-77
2022/04/23 09:58:29;;;;;;;17.97;14.20;;;14.50;99.90;;;;;;5015451;28;20181;-77
2022/04/23 10:00:58;;;;;;;16.43;13.77;;;15.10;99.90;;;;;;4999207;28;20182;-76
2022/04/23 10:03:29;;;;;;;17.20;13.90;;;15.60;99.90;;;;;;5015074;28;20692;-76
2022/04/23 10:05:55;;;;;;;16.87;13.97;;;15.40;99.90;;;;;;5015264;28;20204;-76
2022/04/23 10:08:36;;;;;;;16.40;13.63;;;15.20;99.90;;;;;;5015212;28;20242;-76
2022/04/23 10:11:15;;;;;;;17.47;13.73;;;14.90;99.90;;;;;;5015097;28;20209;-76
2022/04/23 10:13:46;;;;;;;15.23;13.17;;;14.80;99.90;;;;;;5014665;28;20210;-76
2022/04/23 10:16:13;;;;;;;16.37;13.37;;;14.90;99.90;;;;;;4999237;28;20826;-75
2022/04/23 10:18:39;;;;;;;16.60;12.93;;;14.80;99.90;;;;;;4998541;28;20233;-76
2022/04/23 10:21:10;;;;;;;16.70;12.80;;;14.80;99.90;;;;;;4998830;28;20179;-76
2022/04/23 10:23:46;;;;;;;18.43;13.50;;;14.90;99.90;;;;;;4998382;28;20207;-75
2022/04/23 10:26:34;;;;;;;18.47;13.40;;;14.70;99.90;;;;;;5015178;28;20205;-76
2022/04/23 10:29:06;;;;;;;15.77;12.37;;;14.70;99.90;;;;;;5014704;28;20174;-77
2022/04/23 10:31:31;;;;;;;14.93;12.17;;;14.70;99.90;;;;;;4999502;28;20166;-77
2022/04/23 10:33:57;;;;;;;14.77;11.87;;;14.60;99.90;;;;;;5014922;28;20268;-77
2022/04/23 10:36:23;;;;;;;15.47;12.43;;;14.40;99.90;;;;;;5014724;28;20202;-77
2022/04/23 10:39:10;;;;;;;15.40;11.83;;;14.40;99.90;;;;;;4998399;28;20175;-76
2022/04/23 10:41:35;;;;;;;14.90;11.97;;;14.40;99.90;;;;;;5000829;28;20638;-76
2022/04/23 10:44:05;;;;;;;14.10;11.57;;;14.40;99.90;;;;;;5017876;28;20254;-76
2022/04/23 10:46:36;;;;;;;13.80;11.37;;;14.50;99.90;;;;;;5036596;28;20184;-77
2022/04/23 10:49:20;;;;;;;14.30;11.73;;;14.60;99.90;;;;;;5018638;28;20343;-77
2022/04/23 10:51:53;;;;;;;14.37;10.77;;;14.60;99.90;;;;;;5018438;28;20537;-77
2022/04/23 10:54:40;;;;;;;15.03;11.27;;;14.70;99.90;;;;;;5036226;28;20165;-77
2022/04/23 10:57:10;;;;;;;13.63;11.40;;;14.80;99.90;;;;;;5001465;28;20619;-77
2022/04/23 10:59:47;;;;;;;13.53;11.10;;;14.70;99.90;;;;;;5036114;28;20166;-77
2022/04/23 11:02:19;;;;;;;13.63;11.00;;;14.60;99.90;;;;;;5002035;28;20217;-77
2022/04/23 11:13:50;;;;;;;13.30;11.07;;;14.70;99.90;;;;;;5035770;28;20178;-77
2022/04/23 11:16:20;;;;;;;13.80;10.87;;;14.70;99.90;;;;;;5018352;28;20248;-76
2022/04/23 11:18:49;;;;;;;13.77;11.37;;;14.80;99.90;;;;;;5018567;28;20166;-76
2022/04/23 11:21:26;;;;;;;13.77;10.67;;;14.80;99.90;;;;;;5017967;28;20175;-77
2022/04/23 11:23:54;;;;;;;14.20;10.97;;;14.90;99.90;;;;;;5001971;28;20277;-76
2022/04/23 11:26:39;;;;;;;13.83;11.30;;;14.90;99.90;;;;;;5002077;28;20182;-77
2022/04/23 11:29:05;;;;;;;13.10;10.17;;;14.90;99.90;;;;;;5017933;28;20166;-77
2022/04/23 11:31:31;;;;;;;13.43;11.13;;;15.00;99.90;;;;;;4985172;28;20182;-76
2022/04/23 11:33:59;;;;;;;13.77;11.70;;;15.00;99.90;;;;;;5017926;28;20206;-77
2022/04/23 11:36:28;;;;;;;12.90;10.53;;;14.80;99.90;;;;;;5001395;28;20198;-77
2022/04/23 11:39:00;;;;;;;11.27;10.03;;;14.90;99.90;;;;;;5001490;28;20171;-76
2022/04/23 11:41:27;;;;;;;12.60;10.37;;;14.90;99.90;;;;;;5001198;28;20194;-77
2022/04/23 11:43:52;;;;;;;13.57;10.70;;;15.00;99.90;;;;;;5017432;28;20171;-77
2022/04/23 11:46:18;;;;;;;12.23;10.70;;;15.00;99.90;;;;;;5018174;28;20178;-76
2022/04/23 11:48:48;;;;;;;12.13;9.57;;;15.10;99.90;;;;;;4985073;28;20185;-77
2022/04/23 11:51:20;;;;;;;12.57;10.63;;;15.20;99.90;;;;;;5017534;28;20197;-78
2022/04/23 11:54:01;;;;;;;11.77;10.13;;;15.60;99.90;;;;;;5000858;28;20198;-78
2022/04/23 11:56:32;;;;;;;12.57;10.43;;;15.90;99.90;;;;;;5016964;28;20255;-78
2022/04/23 11:59:03;;;;;;;11.43;9.70;;;15.90;99.90;;;;;;5001415;28;20178;-78
2022/04/23 12:01:29;;;;;;;11.33;9.73;;;16.10;99.90;;;;;;5001061;28;20182;-78
2022/04/23 12:03:58;;;;;;;11.53;10.07;;;16.10;99.90;;;;;;5017495;28;20182;-78
2022/04/23 12:06:24;;;;;;;11.37;9.43;;;16.20;99.90;;;;;;5000976;28;20187;-78
2022/04/23 12:09:03;;;;;;;11.53;9.70;;;16.30;99.90;;;;;;5000918;28;20240;-78
2022/04/23 12:11:28;;;;;;;11.13;9.93;;;16.10;99.90;;;;;;5019135;28;20159;-78
2022/04/23 12:13:54;;;;;;;11.80;10.10;;;16.00;99.90;;;;;;5017005;28;20167;-78
2022/04/23 12:16:33;;;;;;;11.20;8.97;;;15.70;99.90;;;;;;5034560;28;20556;-78
2022/04/23 12:19:00;;;;;;;11.87;9.80;;;15.60;99.90;;;;;;5016669;28;20166;-78
2022/04/23 12:21:26;;;;;;;11.67;9.63;;;15.50;99.90;;;;;;5017006;28;20174;-78
2022/04/23 12:23:51;;;;;;;12.90;9.87;;;15.70;99.90;;;;;;5016930;28;20189;-78
2022/04/23 12:26:21;;;;;;;10.97;9.23;;;15.70;99.90;;;;;;4984234;28;20233;-78
2022/04/23 12:42:25;;;;;;;12.07;9.40;;;16.40;99.90;;;;;;5019299;28;20209;-78
2022/04/23 12:44:52;;;;;;;10.77;8.73;;;16.50;99.90;;;;;;4983990;28;20174;-78
2022/04/23 12:47:34;;;;;;;11.03;8.77;;;16.60;99.90;;;;;;5016941;28;20163;-78
2022/04/23 12:50:02;;;;;;;10.53;9.10;;;16.50;99.90;;;;;;5016332;28;20166;-78
2022/04/23 12:52:31;;;;;;;10.30;8.80;;;16.70;99.90;;;;;;5016175;28;20541;-78
2022/04/23 12:55:19;;;;;;;10.13;9.03;;;16.80;99.90;;;;;;5033959;28;20170;-78
2022/04/23 12:57:46;;;;;;;9.97;8.97;;;16.90;99.90;;;;;;5016452;28;20262;-78
2022/04/23 13:00:18;;;;;;;9.37;8.13;;;17.30;99.90;;;;;;5016438;28;20179;-78
2022/04/23 13:02:46;;;;;;;9.70;8.40;;;17.60;99.90;;;;;;5055013;22;20225;-76
2022/04/23 13:05:12;;;;;;;11.37;8.40;;;17.70;99.90;;;;;;5055916;28;20165;-76
2022/04/23 13:10:23;;;;;;;10.10;8.43;;;17.50;99.90;;;;;;5073818;28;20222;-76
2022/04/23 13:12:49;;;;;;;11.03;8.57;;;17.40;99.90;;;;;;5046058;28;20296;-76
2022/04/23 13:15:18;;;;;;;8.93;8.03;;;17.10;99.90;;;;;;5019448;28;20177;-76
2022/04/23 13:17:46;;;;;;;8.43;7.47;;;16.70;99.90;;;;;;5035749;28;20676;-76
2022/04/23 13:20:13;;;;;;;10.40;8.60;;;16.70;99.90;;;;;;5019552;28;20220;-76
2022/04/23 13:22:41;;;;;;;8.60;7.70;;;16.60;99.90;;;;;;5035410;28;20660;-76
2022/04/23 13:25:07;;;;;;;9.70;7.90;;;16.40;99.90;;;;;;5019306;28;20215;-76
2022/04/23 13:27:33;;;;;;;8.47;7.57;;;16.40;99.90;;;;;;5035342;28;20182;-76
2022/04/23 13:29:59;;;;;;;8.70;7.80;;;16.30;99.90;;;;;;5019249;28;20628;-77
2022/04/23 13:32:25;;;;;;;9.17;8.27;;;16.40;99.90;;;;;;5018757;28;20209;-76